sensor_id;sensor_type;location;lat;lon;timestamp;P1;durP1;ratioP1;P2;durP2;ratioP2
16524;SDS011;8375;33.594;-117.718;2023-01-15T00:01:03;5.03;;;1.70;;
16524;SDS011;8375;33.594;-117.718;2023-01-15T00:03:44;4.27;;;1.17;;
16524;SDS011;8375;33.594;-117.718;2023-01-15T00:06:13;5.07;;;1.00;;
16524;SDS011;8375;33.594;-117.718;2023-01-15T00:08:43;5.77;;;1.37;;
16524;SDS011;8375;33.594;-117.718;2023-01-15T00:11:12;4.93;;;1.60;;
16524;SDS011;8375;33.594;-117.718;2023-01-15T00:13:41;8.80;;;1.30;;
16524;SDS011;8375;33.594;-117.718;2023-01-15T00:16:12;5.67;;;2.07;;
16524;SDS011;8375;33.594;-117.718;2023-01-15T00:18:42;4.80;;;1.43;;
16524;SDS011;8375;33.594;-117.718;2023-01-15T00:21:15;3.93;;;1.30;;
16524;SDS011;8375;33.594;-117.718;2023-01-15T00:23:44;7.17;;;1.73;;
16524;SDS011;8375;33.594;-117.718;2023-01-15T00:26:30;5.43;;;1.30;;
16524;SDS011;8375;33.594;-117.718;2023-01-15T00:29:16;4.77;;;1.87;;
16524;SDS011;8375;33.594;-117.718;2023-01-15T00:31:51;7.43;;;2.17;;
16524;SDS011;8375;33.594;-117.718;2023-01-15T00:34:22;6.07;;;1.60;;
16524;SDS011;8375;33.594;-117.718;2023-01-15T00:36:51;5.33;;;1.80;;
16524;SDS011;8375;33.594;-117.718;2023-01-15T00:39:20;3.27;;;1.07;;
16524;SDS011;8375;33.594;-117.718;2023-01-15T00:41:49;5.50;;;1.13;;
16524;SDS011;8375;33.594;-117.718;2023-01-15T00:44:18;6.37;;;1.47;;
16524;SDS011;8375;33.594;-117.718;2023-01-15T00:46:47;5.77;;;1.00;;
16524;SDS011;8375;33.594;-117.718;2023-01-15T00:49:17;5.47;;;1.33;;
16524;SDS011;8375;33.594;-117.718;2023-01-15T00:51:46;4.43;;;1.27;;
16524;SDS011;8375;33.594;-117.718;2023-01-15T00:54:15;5.67;;;1.20;;
16524;SDS011;8375;33.594;-117.718;2023-01-15T00:56:44;3.70;;;1.00;;
16524;SDS011;8375;33.594;-117.718;2023-01-15T00:59:13;3.53;;;1.00;;
16524;SDS011;8375;33.594;-117.718;2023-01-15T01:01:41;1.93;;;1.20;;
16524;SDS011;8375;33.594;-117.718;2023-01-15T01:04:10;4.83;;;2.20;;
16524;SDS011;8375;33.594;-117.718;2023-01-15T01:06:40;2.47;;;1.30;;
16524;SDS011;8375;33.594;-117.718;2023-01-15T01:09:09;3.87;;;2.93;;
16524;SDS011;8375;33.594;-117.718;2023-01-15T01:11:39;8.40;;;7.17;;
16524;SDS011;8375;33.594;-117.718;2023-01-15T01:14:08;5.23;;;2.60;;
16524;SDS011;8375;33.594;-117.718;2023-01-15T01:16:38;2.47;;;1.30;;
16524;SDS011;8375;33.594;-117.718;2023-01-15T01:19:08;3.93;;;2.27;;
16524;SDS011;8375;33.594;-117.718;2023-01-15T01:21:40;4.73;;;3.40;;
16524;SDS011;8375;33.594;-117.718;2023-01-15T01:24:10;8.43;;;3.17;;
16524;SDS011;8375;33.594;-117.718;2023-01-15T01:26:41;8.40;;;4.13;;
16524;SDS011;8375;33.594;-117.718;2023-01-15T01:29:10;5.50;;;3.90;;
16524;SDS011;8375;33.594;-117.718;2023-01-15T01:31:39;10.03;;;4.57;;
16524;SDS011;8375;33.594;-117.718;2023-01-15T01:34:09;11.33;;;7.50;;
16524;SDS011;8375;33.594;-117.718;2023-01-15T01:36:38;7.40;;;4.23;;
16524;SDS011;8375;33.594;-117.718;2023-01-15T01:39:11;8.83;;;4.73;;
16524;SDS011;8375;33.594;-117.718;2023-01-15T01:41:41;7.60;;;4.10;;
16524;SDS011;8375;33.594;-117.718;2023-01-15T01:47:12;6.67;;;5.10;;
16524;SDS011;8375;33.594;-117.718;2023-01-15T01:49:47;9.20;;;5.57;;
16524;SDS011;8375;33.594;-117.718;2023-01-15T01:52:20;11.00;;;5.73;;
16524;SDS011;8375;33.594;-117.718;2023-01-15T01:54:53;12.80;;;5.83;;
16524;SDS011;8375;33.594;-117.718;2023-01-15T01:57:23;8.27;;;4.40;;
16524;SDS011;8375;33.594;-117.718;2023-01-15T01:59:52;7.33;;;3.73;;
16524;SDS011;8375;33.594;-117.718;2023-01-15T02:02:22;5.40;;;2.87;;
16524;SDS011;8375;33.594;-117.718;2023-01-15T02:04:51;6.43;;;3.10;;
16524;SDS011;8375;33.594;-117.718;2023-01-15T02:07:22;4.93;;;2.80;;
16524;SDS011;8375;33.594;-117.718;2023-01-15T02:09:52;6.60;;;2.87;;
16524;SDS011;8375;33.594;-117.718;2023-01-15T02:12:21;6.67;;;3.13;;
16524;SDS011;8375;33.594;-117.718;2023-01-15T02:14:56;7.37;;;4.43;;
16524;SDS011;8375;33.594;-117.718;2023-01-15T02:17:32;7.37;;;6.63;;
16524;SDS011;8375;33.594;-117.718;2023-01-15T02:20:14;7.93;;;6.07;;
16524;SDS011;8375;33.594;-117.718;2023-01-15T02:22:53;9.20;;;5.47;;
16524;SDS011;8375;33.594;-117.718;2023-01-15T02:25:40;8.70;;;4.30;;
16524;SDS011;8375;33.594;-117.718;2023-01-15T02:28:26;11.23;;;4.57;;
16524;SDS011;8375;33.594;-117.718;2023-01-15T02:30:58;9.77;;;3.60;;
16524;SDS011;8375;33.594;-117.718;2023-01-15T02:33:32;10.10;;;3.70;;
16524;SDS011;8375;33.594;-117.718;2023-01-15T02:36:05;9.33;;;3.50;;
16524;SDS011;8375;33.594;-117.718;2023-01-15T02:38:36;13.00;;;4.20;;
16524;SDS011;8375;33.594;-117.718;2023-01-15T02:41:10;14.30;;;5.00;;
16524;SDS011;8375;33.594;-117.718;2023-01-15T02:43:45;8.70;;;3.80;;
16524;SDS011;8375;33.594;-117.718;2023-01-15T02:46:16;11.23;;;4.63;;
16524;SDS011;8375;33.594;-117.718;2023-01-15T02:48:49;11.70;;;4.27;;
16524;SDS011;8375;33.594;-117.718;2023-01-15T02:51:22;10.90;;;4.83;;
16524;SDS011;8375;33.594;-117.718;2023-01-15T02:53:52;11.33;;;5.20;;
16524;SDS011;8375;33.594;-117.718;2023-01-15T02:56:26;10.20;;;5.00;;
16524;SDS011;8375;33.594;-117.718;2023-01-15T02:59:02;12.57;;;3.40;;
16524;SDS011;8375;33.594;-117.718;2023-01-15T03:01:35;12.27;;;3.70;;
16524;SDS011;8375;33.594;-117.718;2023-01-15T03:04:09;8.67;;;2.70;;
16524;SDS011;8375;33.594;-117.718;2023-01-15T03:06:44;6.83;;;2.30;;
16524;SDS011;8375;33.594;-117.718;2023-01-15T03:09:16;11.13;;;2.20;;
16524;SDS011;8375;33.594;-117.718;2023-01-15T03:11:46;7.37;;;1.77;;
16524;SDS011;8375;33.594;-117.718;2023-01-15T03:14:23;7.83;;;1.80;;
16524;SDS011;8375;33.594;-117.718;2023-01-15T03:17:00;10.53;;;2.10;;
16524;SDS011;8375;33.594;-117.718;2023-01-15T03:19:36;6.57;;;1.57;;
16524;SDS011;8375;33.594;-117.718;2023-01-15T03:22:11;7.03;;;1.50;;
16524;SDS011;8375;33.594;-117.718;2023-01-15T03:24:46;9.87;;;1.93;;
16524;SDS011;8375;33.594;-117.718;2023-01-15T03:27:18;6.70;;;1.80;;
16524;SDS011;8375;33.594;-117.718;2023-01-15T03:29:49;4.70;;;1.70;;
16524;SDS011;8375;33.594;-117.718;2023-01-15T03:32:20;7.20;;;1.93;;
16524;SDS011;8375;33.594;-117.718;2023-01-15T03:34:50;6.93;;;1.50;;
16524;SDS011;8375;33.594;-117.718;2023-01-15T03:37:20;9.90;;;2.37;;
16524;SDS011;8375;33.594;-117.718;2023-01-15T03:39:52;5.30;;;1.87;;
16524;SDS011;8375;33.594;-117.718;2023-01-15T03:42:30;7.23;;;3.73;;
16524;SDS011;8375;33.594;-117.718;2023-01-15T03:45:11;7.50;;;2.30;;
16524;SDS011;8375;33.594;-117.718;2023-01-15T03:47:47;8.53;;;4.30;;
16524;SDS011;8375;33.594;-117.718;2023-01-15T03:50:25;7.57;;;4.50;;
16524;SDS011;8375;33.594;-117.718;2023-01-15T03:53:01;8.00;;;3.33;;
16524;SDS011;8375;33.594;-117.718;2023-01-15T03:55:41;6.00;;;2.77;;
16524;SDS011;8375;33.594;-117.718;2023-01-15T03:58:13;5.20;;;1.60;;
16524;SDS011;8375;33.594;-117.718;2023-01-15T04:00:49;4.17;;;1.70;;
16524;SDS011;8375;33.594;-117.718;2023-01-15T04:03:19;3.07;;;1.53;;
16524;SDS011;8375;33.594;-117.718;2023-01-15T04:05:50;2.53;;;1.60;;
16524;SDS011;8375;33.594;-117.718;2023-01-15T04:08:22;2.60;;;1.57;;
16524;SDS011;8375;33.594;-117.718;2023-01-15T04:10:53;3.00;;;1.37;;
16524;SDS011;8375;33.594;-117.718;2023-01-15T04:13:23;5.67;;;2.60;;
16524;SDS011;8375;33.594;-117.718;2023-01-15T04:15:54;6.83;;;2.17;;
16524;SDS011;8375;33.594;-117.718;2023-01-15T04:18:23;6.13;;;1.90;;
16524;SDS011;8375;33.594;-117.718;2023-01-15T04:20:52;8.10;;;1.90;;
16524;SDS011;8375;33.594;-117.718;2023-01-15T04:23:21;6.37;;;1.70;;
16524;SDS011;8375;33.594;-117.718;2023-01-15T04:25:50;5.30;;;1.83;;
16524;SDS011;8375;33.594;-117.718;2023-01-15T04:28:19;12.63;;;2.10;;
16524;SDS011;8375;33.594;-117.718;2023-01-15T04:30:47;5.77;;;1.47;;
16524;SDS011;8375;33.594;-117.718;2023-01-15T04:33:18;7.03;;;2.40;;
16524;SDS011;8375;33.594;-117.718;2023-01-15T04:35:46;8.83;;;2.53;;
16524;SDS011;8375;33.594;-117.718;2023-01-15T04:38:15;8.80;;;1.80;;
16524;SDS011;8375;33.594;-117.718;2023-01-15T04:40:44;12.87;;;2.03;;
16524;SDS011;8375;33.594;-117.718;2023-01-15T04:43:29;11.77;;;2.30;;
16524;SDS011;8375;33.594;-117.718;2023-01-15T04:46:14;6.20;;;1.53;;
16524;SDS011;8375;33.594;-117.718;2023-01-15T04:48:48;9.87;;;1.90;;
16524;SDS011;8375;33.594;-117.718;2023-01-15T04:51:17;6.83;;;1.33;;
16524;SDS011;8375;33.594;-117.718;2023-01-15T04:53:46;3.97;;;1.63;;
16524;SDS011;8375;33.594;-117.718;2023-01-15T04:56:14;9.00;;;1.60;;
16524;SDS011;8375;33.594;-117.718;2023-01-15T04:58:43;7.40;;;1.67;;
16524;SDS011;8375;33.594;-117.718;2023-01-15T05:01:12;11.03;;;1.63;;
16524;SDS011;8375;33.594;-117.718;2023-01-15T05:03:42;5.60;;;1.50;;
16524;SDS011;8375;33.594;-117.718;2023-01-15T05:06:12;114.20;;;79.10;;
16524;SDS011;8375;33.594;-117.718;2023-01-15T05:08:42;24.80;;;17.70;;
16524;SDS011;8375;33.594;-117.718;2023-01-15T05:11:11;10.50;;;4.37;;
16524;SDS011;8375;33.594;-117.718;2023-01-15T05:13:40;5.40;;;1.63;;
16524;SDS011;8375;33.594;-117.718;2023-01-15T05:16:09;9.87;;;1.20;;
16524;SDS011;8375;33.594;-117.718;2023-01-15T05:18:39;9.67;;;1.57;;
16524;SDS011;8375;33.594;-117.718;2023-01-15T05:21:14;11.83;;;2.20;;
16524;SDS011;8375;33.594;-117.718;2023-01-15T05:23:47;6.93;;;1.43;;
16524;SDS011;8375;33.594;-117.718;2023-01-15T05:26:17;6.70;;;1.20;;
16524;SDS011;8375;33.594;-117.718;2023-01-15T05:28:47;4.43;;;0.90;;
16524;SDS011;8375;33.594;-117.718;2023-01-15T05:31:17;6.00;;;1.47;;
16524;SDS011;8375;33.594;-117.718;2023-01-15T05:33:46;11.13;;;1.53;;
16524;SDS011;8375;33.594;-117.718;2023-01-15T05:36:18;4.67;;;1.20;;
16524;SDS011;8375;33.594;-117.718;2023-01-15T05:38:48;5.30;;;1.10;;
16524;SDS011;8375;33.594;-117.718;2023-01-15T05:41:17;5.33;;;0.90;;
16524;SDS011;8375;33.594;-117.718;2023-01-15T05:44:07;5.70;;;1.20;;
16524;SDS011;8375;33.594;-117.718;2023-01-15T05:46:37;5.37;;;1.30;;
16524;SDS011;8375;33.594;-117.718;2023-01-15T05:49:08;9.33;;;1.80;;
16524;SDS011;8375;33.594;-117.718;2023-01-15T05:51:43;9.23;;;1.80;;
16524;SDS011;8375;33.594;-117.718;2023-01-15T05:54:13;9.07;;;2.17;;
16524;SDS011;8375;33.594;-117.718;2023-01-15T05:56:43;12.93;;;2.63;;
16524;SDS011;8375;33.594;-117.718;2023-01-15T05:59:12;8.33;;;1.80;;
16524;SDS011;8375;33.594;-117.718;2023-01-15T06:01:41;11.00;;;1.83;;
16524;SDS011;8375;33.594;-117.718;2023-01-15T06:04:10;11.83;;;1.93;;
16524;SDS011;8375;33.594;-117.718;2023-01-15T06:06:40;9.20;;;1.60;;
16524;SDS011;8375;33.594;-117.718;2023-01-15T06:09:10;6.93;;;1.40;;
16524;SDS011;8375;33.594;-117.718;2023-01-15T06:11:39;5.93;;;1.03;;
16524;SDS011;8375;33.594;-117.718;2023-01-15T06:14:09;4.07;;;0.83;;
16524;SDS011;8375;33.594;-117.718;2023-01-15T06:16:38;3.17;;;0.80;;
16524;SDS011;8375;33.594;-117.718;2023-01-15T06:19:08;1.73;;;0.77;;
16524;SDS011;8375;33.594;-117.718;2023-01-15T06:21:38;3.50;;;0.80;;
16524;SDS011;8375;33.594;-117.718;2023-01-15T06:24:08;3.33;;;0.80;;
16524;SDS011;8375;33.594;-117.718;2023-01-15T06:26:37;2.97;;;0.70;;
16524;SDS011;8375;33.594;-117.718;2023-01-15T06:29:06;2.73;;;0.80;;
16524;SDS011;8375;33.594;-117.718;2023-01-15T06:31:35;4.47;;;1.07;;
16524;SDS011;8375;33.594;-117.718;2023-01-15T06:34:03;2.70;;;0.97;;
16524;SDS011;8375;33.594;-117.718;2023-01-15T06:36:32;4.27;;;1.00;;
16524;SDS011;8375;33.594;-117.718;2023-01-15T06:39:01;3.90;;;0.90;;
16524;SDS011;8375;33.594;-117.718;2023-01-15T06:41:31;6.87;;;1.00;;
16524;SDS011;8375;33.594;-117.718;2023-01-15T06:44:16;6.20;;;0.90;;
16524;SDS011;8375;33.594;-117.718;2023-01-15T06:47:02;6.10;;;1.30;;
16524;SDS011;8375;33.594;-117.718;2023-01-15T06:49:49;8.77;;;1.70;;
16524;SDS011;8375;33.594;-117.718;2023-01-15T06:52:18;8.13;;;1.90;;
16524;SDS011;8375;33.594;-117.718;2023-01-15T06:54:47;9.77;;;1.53;;
16524;SDS011;8375;33.594;-117.718;2023-01-15T06:57:18;8.23;;;2.00;;
16524;SDS011;8375;33.594;-117.718;2023-01-15T06:59:47;9.47;;;1.93;;
16524;SDS011;8375;33.594;-117.718;2023-01-15T07:02:16;9.67;;;1.77;;
16524;SDS011;8375;33.594;-117.718;2023-01-15T07:04:46;9.97;;;1.70;;
16524;SDS011;8375;33.594;-117.718;2023-01-15T07:07:15;10.23;;;2.23;;
16524;SDS011;8375;33.594;-117.718;2023-01-15T07:09:44;10.10;;;1.83;;
16524;SDS011;8375;33.594;-117.718;2023-01-15T07:12:13;7.73;;;1.70;;
16524;SDS011;8375;33.594;-117.718;2023-01-15T07:14:43;14.40;;;2.53;;
16524;SDS011;8375;33.594;-117.718;2023-01-15T07:17:12;11.87;;;2.50;;
16524;SDS011;8375;33.594;-117.718;2023-01-15T07:19:41;12.93;;;2.30;;
16524;SDS011;8375;33.594;-117.718;2023-01-15T07:22:10;16.47;;;3.03;;
16524;SDS011;8375;33.594;-117.718;2023-01-15T07:24:38;19.43;;;3.27;;
16524;SDS011;8375;33.594;-117.718;2023-01-15T07:27:07;18.67;;;2.90;;
16524;SDS011;8375;33.594;-117.718;2023-01-15T07:29:36;21.30;;;4.07;;
16524;SDS011;8375;33.594;-117.718;2023-01-15T07:32:06;16.87;;;3.10;;
16524;SDS011;8375;33.594;-117.718;2023-01-15T07:34:36;22.03;;;2.93;;
16524;SDS011;8375;33.594;-117.718;2023-01-15T07:37:05;20.30;;;3.10;;
16524;SDS011;8375;33.594;-117.718;2023-01-15T07:39:33;14.37;;;2.70;;
16524;SDS011;8375;33.594;-117.718;2023-01-15T07:42:02;18.57;;;2.70;;
16524;SDS011;8375;33.594;-117.718;2023-01-15T07:44:47;17.20;;;3.20;;
16524;SDS011;8375;33.594;-117.718;2023-01-15T07:47:34;16.97;;;2.67;;
16524;SDS011;8375;33.594;-117.718;2023-01-15T07:50:20;17.53;;;3.07;;
16524;SDS011;8375;33.594;-117.718;2023-01-15T07:52:50;16.93;;;3.40;;
16524;SDS011;8375;33.594;-117.718;2023-01-15T07:55:18;20.33;;;4.40;;
16524;SDS011;8375;33.594;-117.718;2023-01-15T07:57:48;15.27;;;3.40;;
16524;SDS011;8375;33.594;-117.718;2023-01-15T08:00:18;17.87;;;2.90;;
16524;SDS011;8375;33.594;-117.718;2023-01-15T08:02:51;21.00;;;4.17;;
16524;SDS011;8375;33.594;-117.718;2023-01-15T08:05:20;21.03;;;3.73;;
16524;SDS011;8375;33.594;-117.718;2023-01-15T08:07:49;26.33;;;4.13;;
16524;SDS011;8375;33.594;-117.718;2023-01-15T08:10:17;19.10;;;4.47;;
16524;SDS011;8375;33.594;-117.718;2023-01-15T08:12:48;20.23;;;3.47;;
16524;SDS011;8375;33.594;-117.718;2023-01-15T08:15:34;18.83;;;3.10;;
16524;SDS011;8375;33.594;-117.718;2023-01-15T08:18:09;15.37;;;3.07;;
16524;SDS011;8375;33.594;-117.718;2023-01-15T08:20:38;19.37;;;3.80;;
16524;SDS011;8375;33.594;-117.718;2023-01-15T08:23:08;22.87;;;3.70;;
16524;SDS011;8375;33.594;-117.718;2023-01-15T08:25:37;15.00;;;3.27;;
16524;SDS011;8375;33.594;-117.718;2023-01-15T08:28:05;26.47;;;4.57;;
16524;SDS011;8375;33.594;-117.718;2023-01-15T08:30:34;19.87;;;4.10;;
16524;SDS011;8375;33.594;-117.718;2023-01-15T08:33:03;23.27;;;3.90;;
16524;SDS011;8375;33.594;-117.718;2023-01-15T08:35:33;26.97;;;4.80;;
16524;SDS011;8375;33.594;-117.718;2023-01-15T08:38:05;19.77;;;3.70;;
16524;SDS011;8375;33.594;-117.718;2023-01-15T08:40:36;22.50;;;3.60;;
16524;SDS011;8375;33.594;-117.718;2023-01-15T08:43:23;20.93;;;4.63;;
16524;SDS011;8375;33.594;-117.718;2023-01-15T08:45:52;22.93;;;3.90;;
16524;SDS011;8375;33.594;-117.718;2023-01-15T08:48:23;23.00;;;4.00;;
16524;SDS011;8375;33.594;-117.718;2023-01-15T08:50:53;26.60;;;3.90;;
16524;SDS011;8375;33.594;-117.718;2023-01-15T08:53:22;25.00;;;4.50;;
16524;SDS011;8375;33.594;-117.718;2023-01-15T08:55:51;22.37;;;4.27;;
16524;SDS011;8375;33.594;-117.718;2023-01-15T08:58:22;26.00;;;4.77;;
16524;SDS011;8375;33.594;-117.718;2023-01-15T09:00:51;20.40;;;4.23;;
16524;SDS011;8375;33.594;-117.718;2023-01-15T09:03:19;19.03;;;4.17;;
16524;SDS011;8375;33.594;-117.718;2023-01-15T09:05:48;29.13;;;4.60;;
16524;SDS011;8375;33.594;-117.718;2023-01-15T09:08:22;25.20;;;5.00;;
16524;SDS011;8375;33.594;-117.718;2023-01-15T09:10:55;18.40;;;4.20;;
16524;SDS011;8375;33.594;-117.718;2023-01-15T09:13:24;31.87;;;5.80;;
16524;SDS011;8375;33.594;-117.718;2023-01-15T09:15:53;22.37;;;4.43;;
16524;SDS011;8375;33.594;-117.718;2023-01-15T09:18:25;25.53;;;4.43;;
16524;SDS011;8375;33.594;-117.718;2023-01-15T09:20:54;29.33;;;5.33;;
16524;SDS011;8375;33.594;-117.718;2023-01-15T09:23:25;23.07;;;4.43;;
16524;SDS011;8375;33.594;-117.718;2023-01-15T09:25:53;33.13;;;5.57;;
16524;SDS011;8375;33.594;-117.718;2023-01-15T09:28:23;27.87;;;5.90;;
16524;SDS011;8375;33.594;-117.718;2023-01-15T09:30:52;22.67;;;5.17;;
16524;SDS011;8375;33.594;-117.718;2023-01-15T09:33:21;28.13;;;5.00;;
16524;SDS011;8375;33.594;-117.718;2023-01-15T09:35:49;23.73;;;4.70;;
16524;SDS011;8375;33.594;-117.718;2023-01-15T09:38:19;25.03;;;4.80;;
16524;SDS011;8375;33.594;-117.718;2023-01-15T09:40:50;32.40;;;5.13;;
16524;SDS011;8375;33.594;-117.718;2023-01-15T09:43:28;30.83;;;6.40;;
16524;SDS011;8375;33.594;-117.718;2023-01-15T09:46:09;28.03;;;4.80;;
16524;SDS011;8375;33.594;-117.718;2023-01-15T09:48:45;26.70;;;4.97;;
16524;SDS011;8375;33.594;-117.718;2023-01-15T09:51:27;30.73;;;5.13;;
16524;SDS011;8375;33.594;-117.718;2023-01-15T09:54:13;33.20;;;5.37;;
16524;SDS011;8375;33.594;-117.718;2023-01-15T09:56:51;21.93;;;5.63;;
16524;SDS011;8375;33.594;-117.718;2023-01-15T09:59:24;25.87;;;4.77;;
16524;SDS011;8375;33.594;-117.718;2023-01-15T10:01:58;26.73;;;4.53;;
16524;SDS011;8375;33.594;-117.718;2023-01-15T10:04:32;32.03;;;5.13;;
16524;SDS011;8375;33.594;-117.718;2023-01-15T10:07:08;25.23;;;5.00;;
16524;SDS011;8375;33.594;-117.718;2023-01-15T10:09:46;32.17;;;5.30;;
16524;SDS011;8375;33.594;-117.718;2023-01-15T10:12:26;28.90;;;5.17;;
16524;SDS011;8375;33.594;-117.718;2023-01-15T10:15:15;24.57;;;4.53;;
16524;SDS011;8375;33.594;-117.718;2023-01-15T10:17:50;26.90;;;4.80;;
16524;SDS011;8375;33.594;-117.718;2023-01-15T10:20:37;30.93;;;4.97;;
16524;SDS011;8375;33.594;-117.718;2023-01-15T10:23:19;22.17;;;4.60;;
16524;SDS011;8375;33.594;-117.718;2023-01-15T10:26:01;18.37;;;4.10;;
16524;SDS011;8375;33.594;-117.718;2023-01-15T10:28:49;33.53;;;5.13;;
16524;SDS011;8375;33.594;-117.718;2023-01-15T10:31:28;33.53;;;5.97;;
16524;SDS011;8375;33.594;-117.718;2023-01-15T10:34:13;21.13;;;4.23;;
16524;SDS011;8375;33.594;-117.718;2023-01-15T10:36:58;30.57;;;4.77;;
16524;SDS011;8375;33.594;-117.718;2023-01-15T10:39:34;30.67;;;5.27;;
16524;SDS011;8375;33.594;-117.718;2023-01-15T10:42:13;27.20;;;5.00;;
16524;SDS011;8375;33.594;-117.718;2023-01-15T10:44:55;28.97;;;5.00;;
16524;SDS011;8375;33.594;-117.718;2023-01-15T10:47:31;21.27;;;4.43;;
16524;SDS011;8375;33.594;-117.718;2023-01-15T10:50:02;26.23;;;4.73;;
16524;SDS011;8375;33.594;-117.718;2023-01-15T10:52:39;21.93;;;3.80;;
16524;SDS011;8375;33.594;-117.718;2023-01-15T10:55:16;33.80;;;5.13;;
16524;SDS011;8375;33.594;-117.718;2023-01-15T10:57:52;30.77;;;5.03;;
16524;SDS011;8375;33.594;-117.718;2023-01-15T11:00:28;32.17;;;6.57;;
16524;SDS011;8375;33.594;-117.718;2023-01-15T11:02:59;31.60;;;5.43;;
16524;SDS011;8375;33.594;-117.718;2023-01-15T11:05:31;30.83;;;4.90;;
16524;SDS011;8375;33.594;-117.718;2023-01-15T11:08:02;33.57;;;5.63;;
16524;SDS011;8375;33.594;-117.718;2023-01-15T11:10:34;37.67;;;5.90;;
16524;SDS011;8375;33.594;-117.718;2023-01-15T11:13:11;35.20;;;5.70;;
16524;SDS011;8375;33.594;-117.718;2023-01-15T11:16:10;32.00;;;6.27;;
16524;SDS011;8375;33.594;-117.718;2023-01-15T11:19:03;27.40;;;5.57;;
16524;SDS011;8375;33.594;-117.718;2023-01-15T11:21:50;29.50;;;5.53;;
16524;SDS011;8375;33.594;-117.718;2023-01-15T11:24:20;35.07;;;6.33;;
16524;SDS011;8375;33.594;-117.718;2023-01-15T11:26:49;31.57;;;5.47;;
16524;SDS011;8375;33.594;-117.718;2023-01-15T11:29:21;34.03;;;5.50;;
16524;SDS011;8375;33.594;-117.718;2023-01-15T11:31:59;32.60;;;5.57;;
16524;SDS011;8375;33.594;-117.718;2023-01-15T11:34:27;35.00;;;5.67;;
16524;SDS011;8375;33.594;-117.718;2023-01-15T11:37:02;38.30;;;5.87;;
16524;SDS011;8375;33.594;-117.718;2023-01-15T11:39:32;32.17;;;5.70;;
16524;SDS011;8375;33.594;-117.718;2023-01-15T11:42:01;29.03;;;6.03;;
16524;SDS011;8375;33.594;-117.718;2023-01-15T11:44:51;25.30;;;5.23;;
16524;SDS011;8375;33.594;-117.718;2023-01-15T11:47:39;34.47;;;5.70;;
16524;SDS011;8375;33.594;-117.718;2023-01-15T11:50:34;37.90;;;7.23;;
16524;SDS011;8375;33.594;-117.718;2023-01-15T11:53:13;49.17;;;8.17;;
16524;SDS011;8375;33.594;-117.718;2023-01-15T11:55:52;34.30;;;5.57;;
16524;SDS011;8375;33.594;-117.718;2023-01-15T11:58:27;35.33;;;5.70;;
16524;SDS011;8375;33.594;-117.718;2023-01-15T12:00:59;27.30;;;6.27;;
16524;SDS011;8375;33.594;-117.718;2023-01-15T12:03:30;37.23;;;6.10;;
16524;SDS011;8375;33.594;-117.718;2023-01-15T12:06:02;31.80;;;5.97;;
16524;SDS011;8375;33.594;-117.718;2023-01-15T12:08:41;30.83;;;5.23;;
16524;SDS011;8375;33.594;-117.718;2023-01-15T12:14:10;39.57;;;5.90;;
16524;SDS011;8375;33.594;-117.718;2023-01-15T12:16:56;30.73;;;5.70;;
16524;SDS011;8375;33.594;-117.718;2023-01-15T12:19:33;31.67;;;5.43;;
16524;SDS011;8375;33.594;-117.718;2023-01-15T12:22:16;31.53;;;5.60;;
16524;SDS011;8375;33.594;-117.718;2023-01-15T12:27:58;35.17;;;5.77;;
16524;SDS011;8375;33.594;-117.718;2023-01-15T12:30:35;30.30;;;5.93;;
16524;SDS011;8375;33.594;-117.718;2023-01-15T12:33:18;33.20;;;5.90;;
16524;SDS011;8375;33.594;-117.718;2023-01-15T12:35:55;33.33;;;5.60;;
16524;SDS011;8375;33.594;-117.718;2023-01-15T12:38:38;28.77;;;5.97;;
16524;SDS011;8375;33.594;-117.718;2023-01-15T12:41:13;34.97;;;5.70;;
16524;SDS011;8375;33.594;-117.718;2023-01-15T12:43:46;28.00;;;4.90;;
16524;SDS011;8375;33.594;-117.718;2023-01-15T12:46:38;27.13;;;5.00;;
16524;SDS011;8375;33.594;-117.718;2023-01-15T12:49:12;30.97;;;5.87;;
16524;SDS011;8375;33.594;-117.718;2023-01-15T12:51:56;32.67;;;5.40;;
16524;SDS011;8375;33.594;-117.718;2023-01-15T12:54:33;29.53;;;4.83;;
16524;SDS011;8375;33.594;-117.718;2023-01-15T12:57:08;25.63;;;4.83;;
16524;SDS011;8375;33.594;-117.718;2023-01-15T12:59:45;24.97;;;5.03;;
16524;SDS011;8375;33.594;-117.718;2023-01-15T13:02:21;33.13;;;5.33;;
16524;SDS011;8375;33.594;-117.718;2023-01-15T13:04:57;33.17;;;5.50;;
16524;SDS011;8375;33.594;-117.718;2023-01-15T13:07:40;29.53;;;5.43;;
16524;SDS011;8375;33.594;-117.718;2023-01-15T13:10:15;34.47;;;5.73;;
16524;SDS011;8375;33.594;-117.718;2023-01-15T13:12:46;33.53;;;5.70;;
16524;SDS011;8375;33.594;-117.718;2023-01-15T13:15:16;39.20;;;7.00;;
16524;SDS011;8375;33.594;-117.718;2023-01-15T13:17:50;34.23;;;6.00;;
16524;SDS011;8375;33.594;-117.718;2023-01-15T13:20:32;29.90;;;5.40;;
16524;SDS011;8375;33.594;-117.718;2023-01-15T13:23:16;29.57;;;6.60;;
16524;SDS011;8375;33.594;-117.718;2023-01-15T13:26:00;28.67;;;4.70;;
16524;SDS011;8375;33.594;-117.718;2023-01-15T13:28:48;32.27;;;6.00;;
16524;SDS011;8375;33.594;-117.718;2023-01-15T13:34:27;30.03;;;5.50;;
16524;SDS011;8375;33.594;-117.718;2023-01-15T13:37:03;22.50;;;3.67;;
16524;SDS011;8375;33.594;-117.718;2023-01-15T13:39:40;20.50;;;4.70;;
16524;SDS011;8375;33.594;-117.718;2023-01-15T13:42:12;21.30;;;3.30;;
16524;SDS011;8375;33.594;-117.718;2023-01-15T13:45:01;20.90;;;4.07;;
16524;SDS011;8375;33.594;-117.718;2023-01-15T13:47:35;23.60;;;4.23;;
16524;SDS011;8375;33.594;-117.718;2023-01-15T13:50:11;19.80;;;4.03;;
16524;SDS011;8375;33.594;-117.718;2023-01-15T13:52:43;18.40;;;3.47;;
16524;SDS011;8375;33.594;-117.718;2023-01-15T13:55:18;15.07;;;3.90;;
16524;SDS011;8375;33.594;-117.718;2023-01-15T13:57:52;20.30;;;3.90;;
16524;SDS011;8375;33.594;-117.718;2023-01-15T14:00:28;21.47;;;3.93;;
16524;SDS011;8375;33.594;-117.718;2023-01-15T14:02:58;19.67;;;3.60;;
16524;SDS011;8375;33.594;-117.718;2023-01-15T14:05:29;17.03;;;3.93;;
16524;SDS011;8375;33.594;-117.718;2023-01-15T14:07:59;21.20;;;4.00;;
16524;SDS011;8375;33.594;-117.718;2023-01-15T14:10:34;16.13;;;3.43;;
16524;SDS011;8375;33.594;-117.718;2023-01-15T14:16:13;23.50;;;3.80;;
16524;SDS011;8375;33.594;-117.718;2023-01-15T14:21:51;21.83;;;3.67;;
16524;SDS011;8375;33.594;-117.718;2023-01-15T14:27:43;25.90;;;5.40;;
16524;SDS011;8375;33.594;-117.718;2023-01-15T14:30:25;30.57;;;4.77;;
16524;SDS011;8375;33.594;-117.718;2023-01-15T14:33:07;35.57;;;6.00;;
16524;SDS011;8375;33.594;-117.718;2023-01-15T14:35:45;27.20;;;5.60;;
16524;SDS011;8375;33.594;-117.718;2023-01-15T14:38:15;27.10;;;5.33;;
16524;SDS011;8375;33.594;-117.718;2023-01-15T14:40:51;24.40;;;4.70;;
16524;SDS011;8375;33.594;-117.718;2023-01-15T14:43:26;22.07;;;4.00;;
16524;SDS011;8375;33.594;-117.718;2023-01-15T14:46:06;16.57;;;3.83;;
16524;SDS011;8375;33.594;-117.718;2023-01-15T14:48:40;22.30;;;4.20;;
16524;SDS011;8375;33.594;-117.718;2023-01-15T14:51:09;15.30;;;4.43;;
16524;SDS011;8375;33.594;-117.718;2023-01-15T14:53:42;20.17;;;4.03;;
16524;SDS011;8375;33.594;-117.718;2023-01-15T14:56:16;15.60;;;3.53;;
16524;SDS011;8375;33.594;-117.718;2023-01-15T14:58:50;17.63;;;3.70;;
16524;SDS011;8375;33.594;-117.718;2023-01-15T15:01:34;17.87;;;3.30;;
16524;SDS011;8375;33.594;-117.718;2023-01-15T15:04:13;19.83;;;4.10;;
16524;SDS011;8375;33.594;-117.718;2023-01-15T15:06:49;20.57;;;3.40;;
16524;SDS011;8375;33.594;-117.718;2023-01-15T15:09:28;23.00;;;3.53;;
16524;SDS011;8375;33.594;-117.718;2023-01-15T15:12:16;17.70;;;3.83;;